< < Back
Terminal Aerodrome Forecast


Current Version              Previous Versions:   1  2  3  4  5  6  7  8  9  

Terminal Aerodrome Forecast

705
FTUS42 KCHS 261131
TAFCHS
TAF
KCHS 261131Z 2612/2712 06008KT P6SM SCT025 BKN180
     FM261800 11010KT P6SM VCSH BKN035
     FM270000 08005KT P6SM SCT020 BKN150
     FM270800 02003KT 6SM BR SCT015=



Latest METAR

820
SAUS80 KWBC 261200 RRC
MTRCHS
METAR KCHS 261156Z 05003KT 10SM BKN018 BKN250 24/22 A3007 RMK AO2 SLP180
T02390217 10244 20228 53008


USA.gov is the U.S. government's official web portal to all federal, state and local government web resources and services.